sensor_id;sensor_type;location;lat;lon;timestamp;P1;durP1;ratioP1;P2;durP2;ratioP2
17993;SDS011;9122;48.406;9.984;2023-12-28T00:00:27;9.83;;;8.83;;
17993;SDS011;9122;48.406;9.984;2023-12-28T00:03:12;9.47;;;8.57;;
17993;SDS011;9122;48.406;9.984;2023-12-28T00:05:56;10.47;;;9.37;;
17993;SDS011;9122;48.406;9.984;2023-12-28T00:08:40;9.97;;;8.97;;
17993;SDS011;9122;48.406;9.984;2023-12-28T00:11:24;9.10;;;8.20;;
17993;SDS011;9122;48.406;9.984;2023-12-28T00:14:09;9.37;;;8.37;;
17993;SDS011;9122;48.406;9.984;2023-12-28T00:16:53;10.13;;;9.13;;
17993;SDS011;9122;48.406;9.984;2023-12-28T00:19:38;9.50;;;8.60;;
17993;SDS011;9122;48.406;9.984;2023-12-28T00:22:22;10.33;;;9.33;;
17993;SDS011;9122;48.406;9.984;2023-12-28T00:25:07;10.47;;;8.90;;
17993;SDS011;9122;48.406;9.984;2023-12-28T00:27:52;9.70;;;8.73;;
17993;SDS011;9122;48.406;9.984;2023-12-28T00:30:36;8.70;;;7.90;;
17993;SDS011;9122;48.406;9.984;2023-12-28T00:33:22;10.40;;;8.67;;
17993;SDS011;9122;48.406;9.984;2023-12-28T00:36:07;8.90;;;8.00;;
17993;SDS011;9122;48.406;9.984;2023-12-28T00:38:52;10.90;;;8.77;;
17993;SDS011;9122;48.406;9.984;2023-12-28T00:41:36;9.00;;;8.10;;
17993;SDS011;9122;48.406;9.984;2023-12-28T00:44:21;8.87;;;8.00;;
17993;SDS011;9122;48.406;9.984;2023-12-28T00:47:05;8.40;;;7.60;;
17993;SDS011;9122;48.406;9.984;2023-12-28T00:49:50;9.33;;;8.53;;
17993;SDS011;9122;48.406;9.984;2023-12-28T00:52:34;9.00;;;8.30;;
17993;SDS011;9122;48.406;9.984;2023-12-28T00:55:18;8.57;;;7.80;;
17993;SDS011;9122;48.406;9.984;2023-12-28T00:58:03;9.73;;;8.33;;
17993;SDS011;9122;48.406;9.984;2023-12-28T01:00:47;9.20;;;8.40;;
17993;SDS011;9122;48.406;9.984;2023-12-28T01:03:32;9.87;;;8.93;;
17993;SDS011;9122;48.406;9.984;2023-12-28T01:06:16;8.73;;;7.93;;
17993;SDS011;9122;48.406;9.984;2023-12-28T01:09:00;9.87;;;8.70;;
17993;SDS011;9122;48.406;9.984;2023-12-28T01:11:45;9.93;;;8.97;;
17993;SDS011;9122;48.406;9.984;2023-12-28T01:14:29;8.80;;;7.90;;
17993;SDS011;9122;48.406;9.984;2023-12-28T01:17:14;8.50;;;7.70;;
17993;SDS011;9122;48.406;9.984;2023-12-28T01:19:58;8.90;;;8.10;;
17993;SDS011;9122;48.406;9.984;2023-12-28T01:22:43;8.43;;;7.73;;
17993;SDS011;9122;48.406;9.984;2023-12-28T01:25:27;8.87;;;8.07;;
17993;SDS011;9122;48.406;9.984;2023-12-28T01:28:11;8.53;;;7.73;;
17993;SDS011;9122;48.406;9.984;2023-12-28T01:30:56;8.67;;;7.87;;
17993;SDS011;9122;48.406;9.984;2023-12-28T01:33:40;9.07;;;8.17;;
17993;SDS011;9122;48.406;9.984;2023-12-28T01:36:24;9.47;;;8.67;;
17993;SDS011;9122;48.406;9.984;2023-12-28T01:39:09;9.43;;;8.53;;
17993;SDS011;9122;48.406;9.984;2023-12-28T01:41:56;10.63;;;8.80;;
17993;SDS011;9122;48.406;9.984;2023-12-28T01:44:41;10.33;;;9.00;;
17993;SDS011;9122;48.406;9.984;2023-12-28T01:47:25;10.07;;;8.83;;
17993;SDS011;9122;48.406;9.984;2023-12-28T01:50:11;9.97;;;8.83;;
17993;SDS011;9122;48.406;9.984;2023-12-28T01:52:56;10.47;;;9.03;;
17993;SDS011;9122;48.406;9.984;2023-12-28T01:55:42;9.43;;;8.53;;
17993;SDS011;9122;48.406;9.984;2023-12-28T01:58:27;9.03;;;8.23;;
17993;SDS011;9122;48.406;9.984;2023-12-28T02:01:16;10.43;;;9.37;;
17993;SDS011;9122;48.406;9.984;2023-12-28T02:04:01;10.30;;;9.13;;
17993;SDS011;9122;48.406;9.984;2023-12-28T02:06:46;11.20;;;9.30;;
17993;SDS011;9122;48.406;9.984;2023-12-28T02:09:30;9.50;;;8.70;;
17993;SDS011;9122;48.406;9.984;2023-12-28T02:12:14;9.17;;;8.27;;
17993;SDS011;9122;48.406;9.984;2023-12-28T02:14:58;10.40;;;9.10;;
17993;SDS011;9122;48.406;9.984;2023-12-28T02:17:50;10.80;;;8.30;;
17993;SDS011;9122;48.406;9.984;2023-12-28T02:20:37;10.27;;;8.97;;
17993;SDS011;9122;48.406;9.984;2023-12-28T02:23:25;9.97;;;9.07;;
17993;SDS011;9122;48.406;9.984;2023-12-28T02:26:09;9.60;;;8.70;;
17993;SDS011;9122;48.406;9.984;2023-12-28T02:28:53;10.23;;;9.33;;
17993;SDS011;9122;48.406;9.984;2023-12-28T02:31:39;10.63;;;9.60;;
17993;SDS011;9122;48.406;9.984;2023-12-28T02:34:32;10.00;;;9.00;;
17993;SDS011;9122;48.406;9.984;2023-12-28T02:37:20;10.30;;;9.17;;
17993;SDS011;9122;48.406;9.984;2023-12-28T02:40:06;11.03;;;9.87;;
17993;SDS011;9122;48.406;9.984;2023-12-28T02:42:51;10.80;;;9.60;;
17993;SDS011;9122;48.406;9.984;2023-12-28T02:45:36;10.67;;;9.57;;
17993;SDS011;9122;48.406;9.984;2023-12-28T02:48:21;11.17;;;10.03;;
17993;SDS011;9122;48.406;9.984;2023-12-28T02:51:06;9.80;;;8.77;;
17993;SDS011;9122;48.406;9.984;2023-12-28T02:53:51;9.00;;;8.20;;
17993;SDS011;9122;48.406;9.984;2023-12-28T02:56:35;9.40;;;8.50;;
17993;SDS011;9122;48.406;9.984;2023-12-28T02:59:20;10.20;;;9.13;;
17993;SDS011;9122;48.406;9.984;2023-12-28T03:02:04;9.43;;;8.53;;
17993;SDS011;9122;48.406;9.984;2023-12-28T03:04:48;9.43;;;8.53;;
17993;SDS011;9122;48.406;9.984;2023-12-28T03:07:35;9.27;;;8.30;;
17993;SDS011;9122;48.406;9.984;2023-12-28T03:10:20;9.50;;;8.60;;
17993;SDS011;9122;48.406;9.984;2023-12-28T03:13:05;8.80;;;8.00;;
17993;SDS011;9122;48.406;9.984;2023-12-28T03:15:50;8.50;;;7.80;;
17993;SDS011;9122;48.406;9.984;2023-12-28T03:18:34;8.97;;;8.27;;
17993;SDS011;9122;48.406;9.984;2023-12-28T03:21:18;9.77;;;8.87;;
17993;SDS011;9122;48.406;9.984;2023-12-28T03:24:02;8.77;;;8.07;;
17993;SDS011;9122;48.406;9.984;2023-12-28T03:26:47;10.13;;;9.23;;
17993;SDS011;9122;48.406;9.984;2023-12-28T03:29:32;9.20;;;8.30;;
17993;SDS011;9122;48.406;9.984;2023-12-28T03:32:16;8.63;;;7.80;;
17993;SDS011;9122;48.406;9.984;2023-12-28T03:35:01;8.07;;;7.27;;
17993;SDS011;9122;48.406;9.984;2023-12-28T03:37:45;8.23;;;7.43;;
17993;SDS011;9122;48.406;9.984;2023-12-28T03:40:30;8.40;;;7.60;;
17993;SDS011;9122;48.406;9.984;2023-12-28T03:43:14;8.00;;;7.17;;
17993;SDS011;9122;48.406;9.984;2023-12-28T03:45:59;7.80;;;7.00;;
17993;SDS011;9122;48.406;9.984;2023-12-28T03:48:43;8.33;;;7.57;;
17993;SDS011;9122;48.406;9.984;2023-12-28T03:51:28;8.30;;;7.17;;
17993;SDS011;9122;48.406;9.984;2023-12-28T03:54:12;8.00;;;7.10;;
17993;SDS011;9122;48.406;9.984;2023-12-28T03:56:59;8.00;;;7.30;;
17993;SDS011;9122;48.406;9.984;2023-12-28T03:59:43;7.77;;;7.17;;
17993;SDS011;9122;48.406;9.984;2023-12-28T04:02:28;9.90;;;7.50;;
17993;SDS011;9122;48.406;9.984;2023-12-28T04:05:15;8.00;;;7.17;;
17993;SDS011;9122;48.406;9.984;2023-12-28T04:07:59;7.97;;;7.27;;
17993;SDS011;9122;48.406;9.984;2023-12-28T04:10:44;8.17;;;7.37;;
17993;SDS011;9122;48.406;9.984;2023-12-28T04:13:29;9.00;;;7.87;;
17993;SDS011;9122;48.406;9.984;2023-12-28T04:16:13;8.10;;;7.10;;
17993;SDS011;9122;48.406;9.984;2023-12-28T04:18:58;7.73;;;7.07;;
17993;SDS011;9122;48.406;9.984;2023-12-28T04:21:43;7.73;;;7.03;;
17993;SDS011;9122;48.406;9.984;2023-12-28T04:24:27;8.13;;;7.43;;
17993;SDS011;9122;48.406;9.984;2023-12-28T04:27:12;8.63;;;7.83;;
17993;SDS011;9122;48.406;9.984;2023-12-28T04:29:56;8.50;;;7.63;;
17993;SDS011;9122;48.406;9.984;2023-12-28T04:32:41;9.10;;;8.30;;
17993;SDS011;9122;48.406;9.984;2023-12-28T04:35:25;9.07;;;8.27;;
17993;SDS011;9122;48.406;9.984;2023-12-28T04:38:13;8.90;;;8.03;;
17993;SDS011;9122;48.406;9.984;2023-12-28T04:40:58;8.90;;;8.00;;
17993;SDS011;9122;48.406;9.984;2023-12-28T04:43:43;8.60;;;7.70;;
17993;SDS011;9122;48.406;9.984;2023-12-28T04:46:28;7.87;;;7.17;;
17993;SDS011;9122;48.406;9.984;2023-12-28T04:49:12;7.87;;;6.90;;
17993;SDS011;9122;48.406;9.984;2023-12-28T04:51:56;10.77;;;7.57;;
17993;SDS011;9122;48.406;9.984;2023-12-28T04:54:41;6.77;;;6.17;;
17993;SDS011;9122;48.406;9.984;2023-12-28T04:57:34;7.00;;;6.40;;
17993;SDS011;9122;48.406;9.984;2023-12-28T05:00:19;7.50;;;6.80;;
17993;SDS011;9122;48.406;9.984;2023-12-28T05:03:04;8.03;;;7.27;;
17993;SDS011;9122;48.406;9.984;2023-12-28T05:05:48;7.03;;;6.43;;
17993;SDS011;9122;48.406;9.984;2023-12-28T05:08:32;7.50;;;6.90;;
17993;SDS011;9122;48.406;9.984;2023-12-28T05:11:17;8.57;;;7.77;;
17993;SDS011;9122;48.406;9.984;2023-12-28T05:14:01;9.53;;;8.07;;
17993;SDS011;9122;48.406;9.984;2023-12-28T05:16:45;8.30;;;7.50;;
17993;SDS011;9122;48.406;9.984;2023-12-28T05:19:29;9.87;;;7.80;;
17993;SDS011;9122;48.406;9.984;2023-12-28T05:22:13;8.70;;;7.80;;
17993;SDS011;9122;48.406;9.984;2023-12-28T05:24:58;8.27;;;7.47;;
17993;SDS011;9122;48.406;9.984;2023-12-28T05:27:42;9.00;;;8.20;;
17993;SDS011;9122;48.406;9.984;2023-12-28T05:30:26;9.17;;;8.27;;
17993;SDS011;9122;48.406;9.984;2023-12-28T05:33:11;8.83;;;7.83;;
17993;SDS011;9122;48.406;9.984;2023-12-28T05:35:55;8.40;;;7.60;;
17993;SDS011;9122;48.406;9.984;2023-12-28T05:38:40;8.03;;;7.30;;
17993;SDS011;9122;48.406;9.984;2023-12-28T05:41:24;8.87;;;7.97;;
17993;SDS011;9122;48.406;9.984;2023-12-28T05:44:09;8.43;;;7.50;;
17993;SDS011;9122;48.406;9.984;2023-12-28T05:46:53;9.40;;;8.50;;
17993;SDS011;9122;48.406;9.984;2023-12-28T05:49:37;9.60;;;8.20;;
17993;SDS011;9122;48.406;9.984;2023-12-28T05:52:22;8.57;;;7.77;;
17993;SDS011;9122;48.406;9.984;2023-12-28T05:55:06;8.30;;;7.50;;
17993;SDS011;9122;48.406;9.984;2023-12-28T05:57:51;10.17;;;8.37;;
17993;SDS011;9122;48.406;9.984;2023-12-28T06:00:36;8.97;;;8.07;;
17993;SDS011;9122;48.406;9.984;2023-12-28T06:03:20;9.17;;;7.90;;
17993;SDS011;9122;48.406;9.984;2023-12-28T06:06:05;8.13;;;7.33;;
17993;SDS011;9122;48.406;9.984;2023-12-28T06:08:49;8.00;;;7.30;;
17993;SDS011;9122;48.406;9.984;2023-12-28T06:11:34;9.23;;;8.37;;
17993;SDS011;9122;48.406;9.984;2023-12-28T06:14:19;8.60;;;7.87;;
17993;SDS011;9122;48.406;9.984;2023-12-28T06:17:03;7.17;;;6.57;;
17993;SDS011;9122;48.406;9.984;2023-12-28T06:19:47;8.23;;;7.50;;
17993;SDS011;9122;48.406;9.984;2023-12-28T06:22:33;7.73;;;7.13;;
17993;SDS011;9122;48.406;9.984;2023-12-28T06:25:21;9.10;;;8.20;;
17993;SDS011;9122;48.406;9.984;2023-12-28T06:28:05;7.33;;;6.70;;
17993;SDS011;9122;48.406;9.984;2023-12-28T06:30:49;8.10;;;7.40;;
17993;SDS011;9122;48.406;9.984;2023-12-28T06:33:35;8.63;;;7.83;;
17993;SDS011;9122;48.406;9.984;2023-12-28T06:36:19;8.30;;;7.27;;
17993;SDS011;9122;48.406;9.984;2023-12-28T06:39:07;7.70;;;6.93;;
17993;SDS011;9122;48.406;9.984;2023-12-28T06:41:51;7.60;;;6.90;;
17993;SDS011;9122;48.406;9.984;2023-12-28T06:44:36;7.73;;;7.07;;
17993;SDS011;9122;48.406;9.984;2023-12-28T06:47:20;7.40;;;6.73;;
17993;SDS011;9122;48.406;9.984;2023-12-28T06:50:05;10.07;;;8.60;;
17993;SDS011;9122;48.406;9.984;2023-12-28T06:52:50;8.73;;;7.83;;
17993;SDS011;9122;48.406;9.984;2023-12-28T06:55:34;8.73;;;7.80;;
17993;SDS011;9122;48.406;9.984;2023-12-28T06:58:19;8.23;;;7.47;;
17993;SDS011;9122;48.406;9.984;2023-12-28T07:01:03;10.40;;;8.50;;
17993;SDS011;9122;48.406;9.984;2023-12-28T07:03:48;8.00;;;7.30;;
17993;SDS011;9122;48.406;9.984;2023-12-28T07:06:33;11.47;;;8.63;;
17993;SDS011;9122;48.406;9.984;2023-12-28T07:09:17;21.43;;;12.23;;
17993;SDS011;9122;48.406;9.984;2023-12-28T07:12:02;12.40;;;8.37;;
17993;SDS011;9122;48.406;9.984;2023-12-28T07:14:46;9.47;;;8.50;;
17993;SDS011;9122;48.406;9.984;2023-12-28T07:17:31;8.30;;;7.47;;
17993;SDS011;9122;48.406;9.984;2023-12-28T07:20:15;9.47;;;8.57;;
17993;SDS011;9122;48.406;9.984;2023-12-28T07:23:00;9.57;;;8.73;;
17993;SDS011;9122;48.406;9.984;2023-12-28T07:25:44;9.57;;;8.67;;
17993;SDS011;9122;48.406;9.984;2023-12-28T07:28:28;9.20;;;8.30;;
17993;SDS011;9122;48.406;9.984;2023-12-28T07:31:22;8.73;;;7.93;;
17993;SDS011;9122;48.406;9.984;2023-12-28T07:34:11;7.90;;;7.30;;
17993;SDS011;9122;48.406;9.984;2023-12-28T07:36:55;8.27;;;7.57;;
17993;SDS011;9122;48.406;9.984;2023-12-28T07:39:40;8.20;;;7.40;;
17993;SDS011;9122;48.406;9.984;2023-12-28T07:42:24;8.03;;;7.07;;
17993;SDS011;9122;48.406;9.984;2023-12-28T07:45:08;8.60;;;7.80;;
17993;SDS011;9122;48.406;9.984;2023-12-28T07:47:52;9.13;;;8.17;;
17993;SDS011;9122;48.406;9.984;2023-12-28T07:50:37;9.90;;;8.20;;
17993;SDS011;9122;48.406;9.984;2023-12-28T07:53:21;8.60;;;7.70;;
17993;SDS011;9122;48.406;9.984;2023-12-28T07:56:06;8.67;;;7.87;;
17993;SDS011;9122;48.406;9.984;2023-12-28T07:58:50;9.30;;;8.40;;
17993;SDS011;9122;48.406;9.984;2023-12-28T08:01:35;8.50;;;7.70;;
17993;SDS011;9122;48.406;9.984;2023-12-28T08:04:19;8.33;;;7.47;;
17993;SDS011;9122;48.406;9.984;2023-12-28T08:07:04;8.43;;;7.63;;
17993;SDS011;9122;48.406;9.984;2023-12-28T08:09:50;8.30;;;7.60;;
17993;SDS011;9122;48.406;9.984;2023-12-28T08:12:35;7.77;;;6.90;;
17993;SDS011;9122;48.406;9.984;2023-12-28T08:15:19;7.90;;;7.10;;
17993;SDS011;9122;48.406;9.984;2023-12-28T08:18:03;7.30;;;6.70;;
17993;SDS011;9122;48.406;9.984;2023-12-28T08:20:48;7.40;;;6.60;;
17993;SDS011;9122;48.406;9.984;2023-12-28T08:23:33;7.73;;;7.03;;
17993;SDS011;9122;48.406;9.984;2023-12-28T08:26:18;12.03;;;7.00;;
17993;SDS011;9122;48.406;9.984;2023-12-28T08:29:03;8.60;;;7.70;;
17993;SDS011;9122;48.406;9.984;2023-12-28T08:31:47;8.83;;;7.93;;
17993;SDS011;9122;48.406;9.984;2023-12-28T08:34:32;8.43;;;7.70;;
17993;SDS011;9122;48.406;9.984;2023-12-28T08:37:16;8.03;;;6.53;;
17993;SDS011;9122;48.406;9.984;2023-12-28T08:40:01;6.30;;;5.80;;
17993;SDS011;9122;48.406;9.984;2023-12-28T08:42:45;6.27;;;5.60;;
17993;SDS011;9122;48.406;9.984;2023-12-28T08:45:30;6.40;;;5.73;;
17993;SDS011;9122;48.406;9.984;2023-12-28T08:48:15;6.63;;;6.03;;
17993;SDS011;9122;48.406;9.984;2023-12-28T08:50:59;6.90;;;6.30;;
17993;SDS011;9122;48.406;9.984;2023-12-28T08:53:44;5.83;;;5.30;;
17993;SDS011;9122;48.406;9.984;2023-12-28T08:56:28;7.20;;;6.47;;
17993;SDS011;9122;48.406;9.984;2023-12-28T08:59:13;6.20;;;5.70;;
17993;SDS011;9122;48.406;9.984;2023-12-28T09:01:59;6.13;;;5.60;;
17993;SDS011;9122;48.406;9.984;2023-12-28T09:04:45;6.00;;;5.50;;
17993;SDS011;9122;48.406;9.984;2023-12-28T09:07:29;6.40;;;5.80;;
17993;SDS011;9122;48.406;9.984;2023-12-28T09:10:14;6.17;;;5.57;;
17993;SDS011;9122;48.406;9.984;2023-12-28T09:12:58;6.43;;;5.70;;
17993;SDS011;9122;48.406;9.984;2023-12-28T09:15:43;6.90;;;6.20;;
17993;SDS011;9122;48.406;9.984;2023-12-28T09:18:27;6.23;;;5.70;;
17993;SDS011;9122;48.406;9.984;2023-12-28T09:21:12;5.70;;;5.20;;
17993;SDS011;9122;48.406;9.984;2023-12-28T09:23:56;6.57;;;5.53;;
17993;SDS011;9122;48.406;9.984;2023-12-28T09:26:43;6.23;;;5.73;;
17993;SDS011;9122;48.406;9.984;2023-12-28T09:29:33;7.13;;;6.33;;
17993;SDS011;9122;48.406;9.984;2023-12-28T09:32:19;8.13;;;6.03;;
17993;SDS011;9122;48.406;9.984;2023-12-28T09:35:04;6.67;;;6.03;;
17993;SDS011;9122;48.406;9.984;2023-12-28T09:37:51;7.20;;;6.50;;
17993;SDS011;9122;48.406;9.984;2023-12-28T09:40:36;7.60;;;6.57;;
17993;SDS011;9122;48.406;9.984;2023-12-28T09:43:24;7.43;;;6.27;;
17993;SDS011;9122;48.406;9.984;2023-12-28T09:46:10;7.07;;;6.43;;
17993;SDS011;9122;48.406;9.984;2023-12-28T09:48:58;6.23;;;5.67;;
17993;SDS011;9122;48.406;9.984;2023-12-28T09:51:42;7.77;;;6.40;;
17993;SDS011;9122;48.406;9.984;2023-12-28T09:54:27;7.17;;;6.47;;
17993;SDS011;9122;48.406;9.984;2023-12-28T09:57:11;6.13;;;5.60;;
17993;SDS011;9122;48.406;9.984;2023-12-28T09:59:56;6.97;;;6.37;;
17993;SDS011;9122;48.406;9.984;2023-12-28T10:02:43;6.90;;;6.20;;
17993;SDS011;9122;48.406;9.984;2023-12-28T10:05:28;6.20;;;5.70;;
17993;SDS011;9122;48.406;9.984;2023-12-28T10:08:13;7.37;;;6.67;;
17993;SDS011;9122;48.406;9.984;2023-12-28T10:10:58;8.47;;;6.30;;
17993;SDS011;9122;48.406;9.984;2023-12-28T10:13:45;7.63;;;6.93;;
17993;SDS011;9122;48.406;9.984;2023-12-28T10:16:29;7.83;;;7.13;;
17993;SDS011;9122;48.406;9.984;2023-12-28T10:19:14;6.93;;;6.27;;
17993;SDS011;9122;48.406;9.984;2023-12-28T10:21:58;7.30;;;6.60;;
17993;SDS011;9122;48.406;9.984;2023-12-28T10:24:43;7.33;;;6.27;;
17993;SDS011;9122;48.406;9.984;2023-12-28T10:27:29;6.97;;;6.43;;
17993;SDS011;9122;48.406;9.984;2023-12-28T10:30:13;7.47;;;6.30;;
17993;SDS011;9122;48.406;9.984;2023-12-28T10:32:57;7.80;;;7.10;;
17993;SDS011;9122;48.406;9.984;2023-12-28T10:35:42;7.17;;;6.40;;
17993;SDS011;9122;48.406;9.984;2023-12-28T10:38:28;7.70;;;6.43;;
17993;SDS011;9122;48.406;9.984;2023-12-28T10:41:17;6.60;;;6.10;;
17993;SDS011;9122;48.406;9.984;2023-12-28T10:44:03;6.90;;;6.23;;
17993;SDS011;9122;48.406;9.984;2023-12-28T10:46:49;7.33;;;6.63;;
17993;SDS011;9122;48.406;9.984;2023-12-28T10:49:37;5.33;;;4.83;;
17993;SDS011;9122;48.406;9.984;2023-12-28T10:52:25;6.03;;;5.53;;
17993;SDS011;9122;48.406;9.984;2023-12-28T10:58:48;5.83;;;5.10;;
17993;SDS011;9122;48.406;9.984;2023-12-28T11:01:35;5.67;;;5.23;;
17993;SDS011;9122;48.406;9.984;2023-12-28T11:04:24;6.40;;;5.90;;
17993;SDS011;9122;48.406;9.984;2023-12-28T11:07:13;6.77;;;6.07;;
17993;SDS011;9122;48.406;9.984;2023-12-28T11:10:00;7.87;;;6.33;;
17993;SDS011;9122;48.406;9.984;2023-12-28T11:12:46;6.10;;;5.67;;
17993;SDS011;9122;48.406;9.984;2023-12-28T11:15:33;6.97;;;5.53;;
17993;SDS011;9122;48.406;9.984;2023-12-28T11:18:18;5.73;;;5.23;;
17993;SDS011;9122;48.406;9.984;2023-12-28T11:21:05;6.50;;;6.00;;
17993;SDS011;9122;48.406;9.984;2023-12-28T11:23:49;6.63;;;5.97;;
17993;SDS011;9122;48.406;9.984;2023-12-28T11:26:34;8.33;;;6.77;;
17993;SDS011;9122;48.406;9.984;2023-12-28T11:29:18;8.07;;;6.33;;
17993;SDS011;9122;48.406;9.984;2023-12-28T11:32:03;6.00;;;5.50;;
17993;SDS011;9122;48.406;9.984;2023-12-28T11:34:56;6.17;;;5.43;;
17993;SDS011;9122;48.406;9.984;2023-12-28T11:37:46;6.53;;;5.93;;
17993;SDS011;9122;48.406;9.984;2023-12-28T11:40:41;6.77;;;5.47;;
17993;SDS011;9122;48.406;9.984;2023-12-28T11:43:34;6.87;;;6.07;;
17993;SDS011;9122;48.406;9.984;2023-12-28T11:46:20;7.60;;;6.83;;
17993;SDS011;9122;48.406;9.984;2023-12-28T11:49:09;8.47;;;6.27;;
17993;SDS011;9122;48.406;9.984;2023-12-28T11:51:56;6.73;;;6.00;;
17993;SDS011;9122;48.406;9.984;2023-12-28T11:54:47;5.80;;;5.30;;
17993;SDS011;9122;48.406;9.984;2023-12-28T11:57:33;5.93;;;5.43;;
17993;SDS011;9122;48.406;9.984;2023-12-28T12:00:19;6.93;;;5.77;;
17993;SDS011;9122;48.406;9.984;2023-12-28T12:03:04;7.03;;;6.33;;
17993;SDS011;9122;48.406;9.984;2023-12-28T12:05:49;6.87;;;6.20;;
17993;SDS011;9122;48.406;9.984;2023-12-28T12:08:33;6.53;;;5.97;;
17993;SDS011;9122;48.406;9.984;2023-12-28T12:11:19;6.20;;;5.60;;
17993;SDS011;9122;48.406;9.984;2023-12-28T12:14:03;5.93;;;5.33;;
17993;SDS011;9122;48.406;9.984;2023-12-28T12:16:52;7.20;;;6.50;;
17993;SDS011;9122;48.406;9.984;2023-12-28T12:19:39;7.13;;;6.47;;
17993;SDS011;9122;48.406;9.984;2023-12-28T12:22:23;7.23;;;6.47;;
17993;SDS011;9122;48.406;9.984;2023-12-28T12:25:09;8.03;;;7.23;;
17993;SDS011;9122;48.406;9.984;2023-12-28T12:27:53;6.87;;;6.37;;
17993;SDS011;9122;48.406;9.984;2023-12-28T12:30:38;5.63;;;5.20;;
17993;SDS011;9122;48.406;9.984;2023-12-28T12:33:22;6.53;;;5.97;;
17993;SDS011;9122;48.406;9.984;2023-12-28T12:36:09;7.57;;;6.07;;
17993;SDS011;9122;48.406;9.984;2023-12-28T12:38:54;6.40;;;5.90;;
17993;SDS011;9122;48.406;9.984;2023-12-28T12:41:40;7.83;;;7.10;;
17993;SDS011;9122;48.406;9.984;2023-12-28T12:44:25;6.63;;;6.03;;
17993;SDS011;9122;48.406;9.984;2023-12-28T12:47:10;8.47;;;6.80;;
17993;SDS011;9122;48.406;9.984;2023-12-28T12:49:56;7.40;;;6.00;;
17993;SDS011;9122;48.406;9.984;2023-12-28T12:52:41;7.50;;;6.70;;
17993;SDS011;9122;48.406;9.984;2023-12-28T12:55:27;6.23;;;5.73;;
17993;SDS011;9122;48.406;9.984;2023-12-28T12:58:12;6.43;;;5.80;;
17993;SDS011;9122;48.406;9.984;2023-12-28T13:00:57;6.43;;;5.93;;
17993;SDS011;9122;48.406;9.984;2023-12-28T13:03:41;6.87;;;6.07;;
17993;SDS011;9122;48.406;9.984;2023-12-28T13:06:26;7.20;;;5.80;;
17993;SDS011;9122;48.406;9.984;2023-12-28T13:09:10;6.10;;;5.50;;
17993;SDS011;9122;48.406;9.984;2023-12-28T13:11:55;6.67;;;5.43;;
17993;SDS011;9122;48.406;9.984;2023-12-28T13:14:40;5.63;;;5.13;;
17993;SDS011;9122;48.406;9.984;2023-12-28T13:17:25;6.97;;;6.23;;
17993;SDS011;9122;48.406;9.984;2023-12-28T13:20:10;5.97;;;5.47;;
17993;SDS011;9122;48.406;9.984;2023-12-28T13:22:55;6.30;;;5.30;;
17993;SDS011;9122;48.406;9.984;2023-12-28T13:25:40;6.13;;;5.43;;
17993;SDS011;9122;48.406;9.984;2023-12-28T13:28:25;6.73;;;5.20;;
17993;SDS011;9122;48.406;9.984;2023-12-28T13:31:10;6.33;;;5.53;;
17993;SDS011;9122;48.406;9.984;2023-12-28T13:33:54;7.77;;;6.30;;
17993;SDS011;9122;48.406;9.984;2023-12-28T13:36:39;5.60;;;5.10;;
17993;SDS011;9122;48.406;9.984;2023-12-28T13:39:23;5.40;;;4.90;;
17993;SDS011;9122;48.406;9.984;2023-12-28T13:42:07;8.90;;;6.00;;
17993;SDS011;9122;48.406;9.984;2023-12-28T13:44:52;6.93;;;6.23;;
17993;SDS011;9122;48.406;9.984;2023-12-28T13:47:37;7.87;;;6.13;;
17993;SDS011;9122;48.406;9.984;2023-12-28T13:50:21;6.60;;;5.97;;
17993;SDS011;9122;48.406;9.984;2023-12-28T13:53:05;6.20;;;5.60;;
17993;SDS011;9122;48.406;9.984;2023-12-28T13:55:51;6.53;;;5.93;;
17993;SDS011;9122;48.406;9.984;2023-12-28T13:58:36;6.30;;;5.80;;
17993;SDS011;9122;48.406;9.984;2023-12-28T14:01:20;7.37;;;6.10;;
17993;SDS011;9122;48.406;9.984;2023-12-28T14:04:05;5.93;;;5.47;;
17993;SDS011;9122;48.406;9.984;2023-12-28T14:06:50;9.37;;;6.50;;
17993;SDS011;9122;48.406;9.984;2023-12-28T14:09:34;6.67;;;6.07;;
17993;SDS011;9122;48.406;9.984;2023-12-28T14:12:20;6.57;;;5.97;;
17993;SDS011;9122;48.406;9.984;2023-12-28T14:15:04;6.30;;;5.80;;
17993;SDS011;9122;48.406;9.984;2023-12-28T14:17:49;5.97;;;5.40;;
17993;SDS011;9122;48.406;9.984;2023-12-28T14:20:33;7.63;;;6.37;;
17993;SDS011;9122;48.406;9.984;2023-12-28T14:23:17;7.20;;;6.07;;
17993;SDS011;9122;48.406;9.984;2023-12-28T14:26:04;7.40;;;6.80;;
17993;SDS011;9122;48.406;9.984;2023-12-28T14:29:01;6.30;;;5.70;;
17993;SDS011;9122;48.406;9.984;2023-12-28T14:31:50;6.50;;;6.00;;
17993;SDS011;9122;48.406;9.984;2023-12-28T14:34:34;8.13;;;6.33;;
17993;SDS011;9122;48.406;9.984;2023-12-28T14:37:19;7.17;;;6.47;;
17993;SDS011;9122;48.406;9.984;2023-12-28T14:40:04;7.33;;;6.70;;
17993;SDS011;9122;48.406;9.984;2023-12-28T14:42:50;7.10;;;6.40;;
17993;SDS011;9122;48.406;9.984;2023-12-28T14:45:34;8.00;;;6.70;;
17993;SDS011;9122;48.406;9.984;2023-12-28T14:48:18;6.63;;;6.13;;
17993;SDS011;9122;48.406;9.984;2023-12-28T14:51:02;7.50;;;6.80;;
17993;SDS011;9122;48.406;9.984;2023-12-28T14:53:47;8.17;;;6.83;;
17993;SDS011;9122;48.406;9.984;2023-12-28T14:56:32;6.63;;;6.07;;
17993;SDS011;9122;48.406;9.984;2023-12-28T14:59:16;6.90;;;6.30;;
17993;SDS011;9122;48.406;9.984;2023-12-28T15:02:00;7.57;;;6.93;;
17993;SDS011;9122;48.406;9.984;2023-12-28T15:04:44;6.27;;;5.67;;
17993;SDS011;9122;48.406;9.984;2023-12-28T15:07:28;8.37;;;6.60;;
17993;SDS011;9122;48.406;9.984;2023-12-28T15:10:13;8.10;;;7.40;;
17993;SDS011;9122;48.406;9.984;2023-12-28T15:12:58;7.90;;;7.00;;
17993;SDS011;9122;48.406;9.984;2023-12-28T15:15:43;7.23;;;6.63;;
17993;SDS011;9122;48.406;9.984;2023-12-28T15:18:28;8.60;;;7.63;;
17993;SDS011;9122;48.406;9.984;2023-12-28T15:21:13;7.47;;;6.70;;
17993;SDS011;9122;48.406;9.984;2023-12-28T15:23:58;8.40;;;7.27;;
17993;SDS011;9122;48.406;9.984;2023-12-28T15:26:42;7.90;;;7.20;;
17993;SDS011;9122;48.406;9.984;2023-12-28T15:29:26;8.93;;;6.97;;
17993;SDS011;9122;48.406;9.984;2023-12-28T15:32:11;8.30;;;6.87;;
17993;SDS011;9122;48.406;9.984;2023-12-28T15:34:55;7.37;;;6.67;;
17993;SDS011;9122;48.406;9.984;2023-12-28T15:37:39;7.67;;;7.07;;
17993;SDS011;9122;48.406;9.984;2023-12-28T15:40:24;7.67;;;6.97;;
17993;SDS011;9122;48.406;9.984;2023-12-28T15:43:08;7.07;;;6.37;;
17993;SDS011;9122;48.406;9.984;2023-12-28T15:45:53;7.17;;;6.57;;
17993;SDS011;9122;48.406;9.984;2023-12-28T15:48:37;7.20;;;6.53;;
17993;SDS011;9122;48.406;9.984;2023-12-28T15:51:21;8.27;;;7.00;;
17993;SDS011;9122;48.406;9.984;2023-12-28T15:54:07;8.10;;;7.30;;
17993;SDS011;9122;48.406;9.984;2023-12-28T15:56:51;7.30;;;6.60;;
17993;SDS011;9122;48.406;9.984;2023-12-28T15:59:35;6.80;;;6.10;;
17993;SDS011;9122;48.406;9.984;2023-12-28T16:02:20;8.57;;;6.33;;
17993;SDS011;9122;48.406;9.984;2023-12-28T16:05:04;7.10;;;6.50;;
17993;SDS011;9122;48.406;9.984;2023-12-28T16:07:48;6.87;;;6.30;;
17993;SDS011;9122;48.406;9.984;2023-12-28T16:10:33;9.10;;;7.10;;
17993;SDS011;9122;48.406;9.984;2023-12-28T16:13:17;8.27;;;7.43;;
17993;SDS011;9122;48.406;9.984;2023-12-28T16:16:01;7.97;;;7.27;;
17993;SDS011;9122;48.406;9.984;2023-12-28T16:18:46;7.97;;;7.17;;
17993;SDS011;9122;48.406;9.984;2023-12-28T16:21:31;7.63;;;6.87;;
17993;SDS011;9122;48.406;9.984;2023-12-28T16:24:16;8.23;;;7.43;;
17993;SDS011;9122;48.406;9.984;2023-12-28T16:27:00;9.17;;;7.00;;
17993;SDS011;9122;48.406;9.984;2023-12-28T16:29:46;7.47;;;6.77;;
17993;SDS011;9122;48.406;9.984;2023-12-28T16:32:30;8.40;;;7.50;;
17993;SDS011;9122;48.406;9.984;2023-12-28T16:35:14;7.63;;;6.93;;
17993;SDS011;9122;48.406;9.984;2023-12-28T16:37:59;7.47;;;6.67;;
17993;SDS011;9122;48.406;9.984;2023-12-28T16:40:43;8.30;;;6.77;;
17993;SDS011;9122;48.406;9.984;2023-12-28T16:43:28;8.60;;;6.90;;
17993;SDS011;9122;48.406;9.984;2023-12-28T16:46:13;7.70;;;6.70;;
17993;SDS011;9122;48.406;9.984;2023-12-28T16:48:57;8.73;;;7.20;;
17993;SDS011;9122;48.406;9.984;2023-12-28T16:51:41;7.43;;;6.83;;